Time;durP1;ratioP1;P1;durP2;ratioP2;P2;SDS_P1;SDS_P2;PMS_P1;PMS_P2;Temp;Humidity;BMP_temperature;BMP_pressure;BME280_temperature;BME280_humidity;BME280_pressure;Samples;Min_cycle;Max_cycle;Signal;HPM_P1;HPM_P2
2021/09/30 00:01:38;;;;;;;4.15;2.70;;;;;;;14.08;93.25;100810.09;2723554;86;21026;-61
2021/09/30 00:05:44;;;;;;;2.95;2.67;;;;;;;14.10;93.13;100810.80;2702107;86;21017;-60
2021/09/30 00:09:57;;;;;;;4.47;1.92;;;;;;;14.11;92.13;100811.98;2700689;84;20994;-62
2021/09/30 00:14:10;;;;;;;4.33;2.20;;;;;;;14.13;91.60;100822.05;2705421;87;21060;-59
2021/09/30 00:18:37;;;;;;;2.40;1.80;;;;;;;14.17;91.59;100816.45;2704077;87;21093;-60
2021/09/30 00:35:54;;;;;;;3.72;1.20;;;;;;;14.17;88.83;100815.95;2695607;85;21038;-61
2021/09/30 00:40:15;;;;;;;1.62;0.90;;;;;;;14.10;88.67;100829.02;2697565;87;21076;-60
2021/09/30 00:53:36;;;;;;;1.52;1.20;;;;;;;13.98;89.21;100856.87;2706468;87;21133;-61
2021/09/30 01:51:58;;;;;;;2.45;0.98;;;;;;;14.08;86.35;100920.59;2787262;83;20981;-59
2021/09/30 02:22:53;;;;;;;1.80;0.50;;;;;;;14.01;82.34;100963.58;2722391;86;21031;-60
2021/09/30 03:01:56;;;;;;;3.40;1.12;;;;;;;13.69;83.90;101025.50;2815775;83;20993;-60
2021/09/30 03:06:08;;;;;;;2.42;1.20;;;;;;;13.69;84.06;101021.97;2784949;85;20989;-60
2021/09/30 03:10:12;;;;;;;3.37;1.35;;;;;;;13.69;84.05;101027.31;2719371;86;21047;-60
2021/09/30 03:14:15;;;;;;;1.30;0.98;;;;;;;13.70;83.81;101034.36;2721202;86;21143;-60
2021/09/30 03:18:31;;;;;;;2.30;0.70;;;;;;;13.64;83.93;101042.39;2709464;86;21031;-61
2021/09/30 03:22:33;;;;;;;1.27;0.68;;;;;;;13.55;83.18;101039.99;2773697;85;20981;-60
2021/09/30 03:26:35;;;;;;;0.90;0.88;;;;;;;13.50;81.72;101048.88;2775109;85;22487;-59
2021/09/30 03:30:37;;;;;;;1.05;0.50;;;;;;;13.40;80.34;101057.28;2781549;84;21080;-58
2021/09/30 03:34:45;;;;;;;4.65;0.55;;;;;;;13.22;79.38;101051.13;2776548;85;21059;-58
2021/09/30 03:38:47;;;;;;;1.90;0.65;;;;;;;13.06;79.27;101051.48;2771847;85;21048;-59
2021/09/30 03:42:55;;;;;;;2.42;0.53;;;;;;;12.94;79.75;101051.98;2781183;85;21008;-58
2021/09/30 03:46:57;;;;;;;1.00;0.50;;;;;;;12.84;80.35;101059.05;2777062;85;21044;-57
2021/09/30 03:59:20;;;;;;;2.80;0.90;;;;;;;12.52;81.45;101082.44;2776986;85;21094;-57
2021/09/30 04:03:25;;;;;;;1.72;1.02;;;;;;;12.43;81.63;101075.98;2776414;84;21009;-59
2021/09/30 04:07:43;;;;;;;1.42;0.95;;;;;;;12.38;82.07;101091.05;2777531;84;21087;-61
2021/09/30 04:11:51;;;;;;;2.87;0.98;;;;;;;12.32;81.88;101095.99;2786107;85;21005;-58
2021/09/30 04:15:54;;;;;;;2.47;0.72;;;;;;;12.30;81.95;101093.43;2778552;85;21012;-56
2021/09/30 04:19:56;;;;;;;3.25;1.37;;;;;;;12.28;81.91;101098.03;2784443;84;20969;-58
2021/09/30 04:24:01;;;;;;;2.22;1.40;;;;;;;12.22;81.51;101110.02;2776534;85;21016;-57
2021/09/30 04:28:04;;;;;;;4.15;1.17;;;;;;;12.13;81.53;101110.23;2780072;85;21056;-58
2021/09/30 04:32:09;;;;;;;5.22;1.57;;;;;;;12.06;81.81;101117.00;2783533;84;20992;-58
2021/09/30 04:36:11;;;;;;;1.70;0.75;;;;;;;12.01;81.82;101107.17;2779816;84;20984;-57
2021/09/30 04:40:14;;;;;;;4.35;0.88;;;;;;;11.96;81.94;101105.27;2787520;85;21099;-59
2021/09/30 04:44:20;;;;;;;1.92;0.70;;;;;;;11.90;82.23;101107.08;2784853;85;20962;-56
2021/09/30 04:48:22;;;;;;;1.20;1.07;;;;;;;11.89;82.20;101104.05;2774810;85;21024;-59
2021/09/30 04:52:24;;;;;;;2.17;0.47;;;;;;;11.78;82.26;101104.34;2776773;85;21228;-57
2021/09/30 04:56:44;;;;;;;1.27;0.68;;;;;;;11.75;82.62;101113.91;2778761;85;21295;-60
2021/09/30 05:00:46;;;;;;;7.95;1.32;;;;;;;11.77;82.41;101115.14;2774391;85;20986;-56
2021/09/30 05:04:53;;;;;;;2.77;1.20;;;;;;;11.79;82.37;101114.07;2780072;85;21004;-58
2021/09/30 05:08:59;;;;;;;1.55;0.60;;;;;;;11.83;82.20;101114.67;2783221;84;21020;-58
2021/09/30 05:13:25;;;;;;;1.67;0.75;;;;;;;11.85;81.59;101120.27;2776675;85;21115;-60
2021/09/30 05:17:46;;;;;;;3.37;1.42;;;;;;;11.87;81.70;101132.14;2781913;85;21044;-59
2021/09/30 05:21:48;;;;;;;1.17;0.80;;;;;;;11.83;80.84;101138.20;2780667;85;21110;-58
2021/09/30 05:25:52;;;;;;;1.72;0.90;;;;;;;11.79;80.76;101141.20;2778560;84;21000;-58
2021/09/30 05:29:53;;;;;;;1.92;0.90;;;;;;;11.73;81.10;101149.65;2777910;85;21013;-59
2021/09/30 05:33:56;;;;;;;3.42;0.98;;;;;;;11.73;81.05;101151.81;2783220;85;20973;-60
2021/09/30 05:37:58;;;;;;;1.20;0.72;;;;;;;11.89;81.01;101157.36;2781489;84;20985;-56
2021/09/30 05:42:01;;;;;;;1.37;0.82;;;;;;;12.17;80.86;101158.86;2779746;85;21031;-59
2021/09/30 05:46:15;;;;;;;1.65;0.78;;;;;;;12.38;80.16;101161.75;2774887;84;21103;-60
2021/09/30 05:50:28;;;;;;;1.47;0.70;;;;;;;12.61;80.25;101169.81;2777732;84;21038;-59
2021/09/30 05:54:31;;;;;;;2.15;1.12;;;;;;;12.76;79.63;101170.44;2782151;84;21029;-58
2021/09/30 05:58:39;;;;;;;2.47;0.70;;;;;;;12.93;79.56;101174.46;2778073;84;21004;-57
2021/09/30 06:15:45;;;;;;;1.05;0.70;;;;;;;13.56;75.42;101187.40;2781463;85;21028;-56
2021/09/30 06:19:52;;;;;;;1.35;1.00;;;;;;;13.66;75.10;101192.85;2781888;84;20973;-58
2021/09/30 06:23:54;;;;;;;3.30;1.10;;;;;;;13.75;74.32;101202.43;2784496;85;21060;-58
2021/09/30 06:27:56;;;;;;;17.35;1.27;;;;;;;13.88;74.86;101214.31;2780842;85;21089;-56
2021/09/30 06:32:05;;;;;;;0.75;0.50;;;;;;;14.09;74.85;101216.56;2783767;85;21008;-56
2021/09/30 06:36:06;;;;;;;1.10;0.65;;;;;;;14.37;75.37;101212.09;2774459;85;20994;-56
2021/09/30 06:40:10;;;;;;;1.40;0.80;;;;;;;14.70;74.65;101208.91;2783283;85;20989;-60
2021/09/30 06:44:19;;;;;;;2.22;1.22;;;;;;;15.05;73.50;101218.47;2780395;85;21004;-57
2021/09/30 06:48:30;;;;;;;2.87;1.20;;;;;;;15.32;72.27;101217.04;2698998;87;21337;-58
2021/09/30 06:52:32;;;;;;;4.05;1.07;;;;;;;15.59;71.34;101222.80;2721520;86;21008;-59
2021/09/30 06:56:34;;;;;;;2.00;0.60;;;;;;;15.64;69.91;101225.91;2779737;85;21031;-59
2021/09/30 07:00:39;;;;;;;3.52;0.93;;;;;;;15.48;69.57;101223.23;2785526;84;21100;-59
2021/09/30 07:04:55;;;;;;;2.62;0.80;;;;;;;15.39;69.77;101228.08;2781774;84;21037;-56
2021/09/30 07:08:57;;;;;;;1.52;0.65;;;;;;;15.27;68.92;101232.68;2783936;85;21069;-57
2021/09/30 07:13:25;;;;;;;2.77;1.02;;;;;;;15.27;69.28;101232.68;2776661;85;21060;-58
2021/09/30 07:17:28;;;;;;;1.32;0.70;;;;;;;15.26;69.21;101240.36;2708912;87;21119;-59
2021/09/30 07:21:31;;;;;;;3.92;1.67;;;;;;;15.19;68.53;101237.37;2783508;85;21012;-57
2021/09/30 07:25:33;;;;;;;4.85;1.27;;;;;;;15.13;68.94;101239.21;2778115;85;21028;-58
2021/09/30 07:29:35;;;;;;;1.72;0.95;;;;;;;15.08;69.26;101250.35;2780902;84;21032;-57
2021/09/30 07:33:37;;;;;;;2.40;1.27;;;;;;;15.11;69.66;101251.42;2786363;85;20996;-57
2021/09/30 07:37:58;;;;;;;1.35;0.62;;;;;;;15.20;69.00;101261.84;2781586;85;20953;-56
2021/09/30 07:42:08;;;;;;;1.40;0.88;;;;;;;15.28;68.45;101264.70;2784131;85;20984;-57
2021/09/30 07:46:10;;;;;;;2.00;1.12;;;;;;;15.35;68.27;101262.84;2786849;85;20992;-57
2021/09/30 07:50:12;;;;;;;2.55;1.07;;;;;;;15.44;69.58;101276.77;2783343;85;21100;-57
2021/09/30 07:54:14;;;;;;;1.55;0.90;;;;;;;15.56;68.49;101267.67;2781833;84;21016;-57
2021/09/30 07:58:18;;;;;;;2.42;0.70;;;;;;;15.62;68.77;101273.47;2779112;85;21055;-58
2021/09/30 08:02:37;;;;;;;6.05;0.90;;;;;;;15.63;68.22;101277.84;2788353;85;21004;-57
2021/09/30 08:06:43;;;;;;;1.30;0.68;;;;;;;15.58;68.46;101280.92;2781416;85;21068;-57
2021/09/30 08:11:11;;;;;;;1.52;0.80;;;;;;;15.61;68.75;101287.86;2791131;85;21007;-57
2021/09/30 08:15:13;;;;;;;3.58;1.25;;;;;;;15.66;69.18;101288.30;2794754;85;21004;-58
2021/09/30 08:19:15;;;;;;;3.15;1.00;;;;;;;15.74;68.88;101283.61;2796282;85;21091;-58
2021/09/30 08:23:17;;;;;;;2.67;0.95;;;;;;;15.74;68.11;101276.90;2779453;85;21016;-58
2021/09/30 08:27:19;;;;;;;2.37;0.98;;;;;;;15.74;68.43;101285.81;2783568;85;21068;-57
2021/09/30 08:31:24;;;;;;;2.40;0.90;;;;;;;15.72;67.92;101281.05;2782907;85;21350;-57
2021/09/30 08:35:27;;;;;;;1.57;1.00;;;;;;;15.66;67.59;101277.57;2784831;85;21052;-58
2021/09/30 08:39:43;;;;;;;3.65;0.60;;;;;;;15.71;68.20;101275.33;2784993;85;20989;-56
2021/09/30 08:43:51;;;;;;;1.87;1.07;;;;;;;15.82;68.21;101274.37;2784273;85;21052;-58
2021/09/30 08:48:06;;;;;;;1.82;0.80;;;;;;;15.83;67.71;101278.78;2775361;84;21056;-56
2021/09/30 08:52:08;;;;;;;2.72;1.20;;;;;;;15.88;67.97;101285.06;2783357;85;21075;-59
2021/09/30 08:56:10;;;;;;;1.40;0.95;;;;;;;15.84;67.30;101289.36;2778534;85;21004;-57
2021/09/30 09:00:17;;;;;;;4.83;0.95;;;;;;;15.83;69.72;101290.86;2820753;82;21102;-57
2021/09/30 09:04:19;;;;;;;;;;;;;;;15.87;68.64;101292.75;2851704;83;21085;-57
2021/09/30 09:08:21;;;;;;;1.72;0.75;;;;;;;15.83;68.49;101289.52;2847417;83;20105;-58
2021/09/30 09:12:23;;;;;;;2.72;2.00;;;;;;;15.89;67.42;101290.81;2854875;83;21008;-56
2021/09/30 09:16:37;;;;;;;6.78;1.75;;;;;;;15.96;67.61;101290.13;2846321;83;20999;-58
2021/09/30 09:20:43;;;;;;;6.30;1.00;;;;;;;15.98;66.90;101284.64;2836443;83;20964;-57
2021/09/30 09:25:09;;;;;;;1.10;0.65;;;;;;;16.10;68.92;101278.67;2847312;83;21342;-60
2021/09/30 09:29:15;;;;;;;4.58;1.37;;;;;;;16.24;67.15;101283.65;2844953;83;21030;-57
2021/09/30 09:33:24;;;;;;;;;;;;;;;16.35;68.51;101277.78;2848853;83;21011;-56
2021/09/30 09:37:31;;;;;;;1.07;0.98;;;;;;;16.48;65.95;101283.73;2843837;83;20093;-60
2021/09/30 09:41:35;;;;;;;3.02;1.15;;;;;;;16.61;67.31;101287.48;2844594;83;21020;-57
2021/09/30 09:45:41;;;;;;;3.50;1.27;;;;;;;16.76;65.77;101288.42;2838949;83;20971;-56
2021/09/30 09:50:21;;;;;;;4.03;1.05;;;;;;;16.93;65.27;101286.36;2811637;83;21026;-57
2021/09/30 09:54:29;;;;;;;2.45;0.62;;;;;;;17.03;64.57;101278.80;2838872;83;21035;-60
2021/09/30 09:58:55;;;;;;;2.33;0.80;;;;;;;17.02;64.00;101292.74;2847288;83;21082;-56
2021/09/30 10:02:57;;;;;;;;;;;;;;;17.11;63.26;101289.69;2778842;84;21098;-56
2021/09/30 10:07:03;;;;;;;4.80;1.12;;;;;;;17.09;62.35;101286.27;2776797;84;20508;-58
2021/09/30 10:11:04;;;;;;;1.82;0.70;;;;;;;17.19;65.03;101292.48;2776919;82;21027;-56
2021/09/30 10:15:07;;;;;;;2.60;1.12;;;;;;;17.26;62.40;101293.59;2758922;84;21082;-57
2021/09/30 10:19:09;;;;;;;1.92;1.00;;;;;;;17.32;63.79;101288.65;2773292;84;21063;-57
2021/09/30 10:23:12;;;;;;;2.30;1.10;;;;;;;17.43;62.97;101292.49;2829922;83;21013;-58
2021/09/30 10:27:20;;;;;;;4.92;1.45;;;;;;;17.53;62.52;101297.36;2845289;83;21078;-57
2021/09/30 10:31:38;;;;;;;1.80;1.30;;;;;;;17.53;63.37;101294.66;2842657;81;21279;-58
2021/09/30 10:35:52;;;;;;;3.77;1.22;;;;;;;17.53;62.18;101294.66;2770726;85;20996;-56
2021/09/30 10:40:21;;;;;;;2.10;0.60;;;;;;;17.73;61.64;101287.86;2831402;83;21048;-58
2021/09/30 10:44:34;;;;;;;7.37;1.10;;;;;;;17.88;60.44;101289.55;2830567;83;20977;-56
2021/09/30 10:48:38;;;;;;;3.67;1.47;;;;;;;18.19;61.52;101289.28;2839795;83;21082;-56
2021/09/30 10:53:04;;;;;;;1.95;0.98;;;;;;;18.47;60.87;101282.97;2833170;83;21012;-58
2021/09/30 10:57:51;;;;;;;5.33;1.45;;;;;;;18.38;58.83;101284.25;2830177;83;21047;-59
2021/09/30 11:01:58;;;;;;;3.52;1.17;;;;;;;18.05;59.93;101287.09;2822661;83;21051;-61
2021/09/30 11:06:25;;;;;;;1.17;0.60;;;;;;;18.19;59.33;101291.11;2839458;83;21090;-58
2021/09/30 11:10:27;;;;;;;1.50;0.88;;;;;;;18.26;59.57;101284.11;2833648;83;21036;-57
2021/09/30 11:14:30;;;;;;;1.52;0.60;;;;;;;18.36;59.82;101274.13;2843905;83;21000;-57
2021/09/30 11:18:46;;;;;;;1.35;0.85;;;;;;;18.36;59.15;101286.25;2831233;83;21024;-57
2021/09/30 11:22:48;;;;;;;3.42;0.75;;;;;;;18.31;58.91;101279.14;2833541;82;21061;-57
2021/09/30 11:26:59;;;;;;;4.75;0.95;;;;;;;18.34;57.50;101277.48;2832343;83;21110;-58
2021/09/30 11:31:33;;;;;;;4.60;0.78;;;;;;;18.33;58.38;101273.09;2839272;83;21015;-57
2021/09/30 11:35:36;;;;;;;2.75;0.40;;;;;;;18.35;59.08;101272.92;2852684;83;21071;-57
2021/09/30 11:39:38;;;;;;;2.37;0.50;;;;;;;18.18;58.00;101281.34;2857600;83;21089;-57
2021/09/30 11:43:40;;;;;;;1.72;0.50;;;;;;;17.98;57.05;101277.39;2846996;83;20971;-56
2021/09/30 11:47:45;;;;;;;2.30;0.88;;;;;;;18.07;57.86;101275.16;2848156;83;21055;-56
2021/09/30 11:52:12;;;;;;;1.20;0.77;;;;;;;18.28;58.15;101271.37;2838838;83;21028;-59
2021/09/30 11:56:18;;;;;;;3.00;0.88;;;;;;;18.55;59.24;101282.55;2839544;83;21114;-59
2021/09/30 12:00:22;;;;;;;3.55;1.40;;;;;;;18.62;57.64;101277.39;2835109;83;20984;-57
2021/09/30 12:04:45;;;;;;;5.00;0.80;;;;;;;18.86;58.93;101286.69;2842946;83;21073;-56
2021/09/30 12:08:59;;;;;;;3.95;1.22;;;;;;;18.90;55.83;101284.05;2840447;83;21098;-58
2021/09/30 12:13:22;;;;;;;1.80;0.90;;;;;;;18.94;57.07;101278.68;2845750;83;21011;-57
2021/09/30 12:17:30;;;;;;;2.30;0.55;;;;;;;19.07;57.50;101276.95;2836446;83;21546;-57
2021/09/30 12:21:46;;;;;;;3.10;0.70;;;;;;;19.09;55.22;101276.80;2850031;83;21036;-57
2021/09/30 12:25:49;;;;;;;0.85;0.45;;;;;;;19.09;55.47;101274.94;2855081;83;21062;-57
2021/09/30 12:30:22;;;;;;;1.85;0.55;;;;;;;19.10;55.40;101276.63;2850245;83;21047;-57
2021/09/30 12:34:27;;;;;;;10.95;1.80;;;;;;;19.10;54.85;101277.14;2841496;83;21056;-57
2021/09/30 12:38:29;;;;;;;0.95;0.40;;;;;;;19.04;56.04;101277.75;2838465;83;21027;-56
2021/09/30 12:42:31;;;;;;;1.87;0.60;;;;;;;19.05;55.27;101282.14;2849093;83;21046;-59
2021/09/30 12:46:52;;;;;;;1.87;0.55;;;;;;;19.13;54.53;101270.91;2834802;83;21117;-56
2021/09/30 12:51:04;;;;;;;0.62;0.50;;;;;;;19.20;56.56;101273.00;2836689;83;21078;-57
2021/09/30 12:55:26;;;;;;;1.02;0.42;;;;;;;19.21;55.49;101267.95;2814102;83;21024;-58
2021/09/30 12:59:28;;;;;;;0.93;0.30;;;;;;;19.28;56.49;101263.59;2833334;83;21003;-56
2021/09/30 13:08:12;;;;;;;4.03;0.70;;;;;;;19.39;55.32;101247.63;2833991;83;21034;-59
2021/09/30 13:12:17;;;;;;;6.80;1.27;;;;;;;19.13;52.97;101245.30;2828956;81;21062;-59
2021/09/30 13:16:25;;;;;;;2.83;0.97;;;;;;;19.05;54.21;101251.13;2818013;83;20987;-57
2021/09/30 13:20:27;;;;;;;1.25;0.30;;;;;;;19.08;53.92;101244.10;2830881;83;21279;-62
2021/09/30 13:24:38;;;;;;;1.15;0.25;;;;;;;19.13;54.03;101253.91;2824943;82;29270;-60
2021/09/30 13:28:39;;;;;;;5.17;0.60;;;;;;;18.88;52.52;101251.50;2829357;83;21009;-60
2021/09/30 13:32:42;;;;;;;10.00;1.45;;;;;;;18.54;53.80;101251.73;2835529;83;21064;-63
2021/09/30 13:36:46;;;;;;;62.38;47.15;;;;;;;18.32;55.22;101255.73;2792082;84;21570;-58
2021/09/30 13:40:47;;;;;;;66.02;49.18;;;;;;;18.24;54.96;101253.80;2788963;84;20964;-61
2021/09/30 13:44:51;;;;;;;25.43;16.48;;;;;;;18.08;55.49;101255.34;2804408;84;21003;-57
2021/09/30 13:48:53;;;;;;;12.85;3.37;;;;;;;18.00;56.35;101255.20;2793636;84;20964;-58
2021/09/30 13:52:55;;;;;;;19.75;10.50;;;;;;;18.11;56.94;101253.69;2796733;84;21063;-59
2021/09/30 13:56:57;;;;;;;8.55;6.42;;;;;;;18.29;56.37;101253.34;2793981;84;21065;-57
2021/09/30 14:00:59;;;;;;;2.60;1.12;;;;;;;18.41;57.19;101255.66;2793093;84;21016;-58
2021/09/30 14:05:03;;;;;;;5.10;1.50;;;;;;;18.43;55.84;101247.92;2800200;84;21003;-57
2021/09/30 14:09:09;;;;;;;2.60;0.95;;;;;;;18.36;54.88;101253.93;2788856;84;20996;-57
2021/09/30 14:13:16;;;;;;;4.03;1.90;;;;;;;18.09;56.99;101264.25;2799862;84;21058;-58
2021/09/30 14:17:54;;;;;;;2.95;1.77;;;;;;;17.80;57.66;101255.31;2796136;84;21047;-57
2021/09/30 14:22:05;;;;;;;2.85;1.00;;;;;;;17.54;58.96;101261.39;2787275;84;21061;-57
2021/09/30 14:26:13;;;;;;;5.15;1.00;;;;;;;17.44;57.54;101262.42;2799933;84;21088;-61
2021/09/30 14:30:15;;;;;;;0.40;0.40;;;;;;;17.46;58.68;101263.95;2799529;84;21067;-59
2021/09/30 14:34:42;;;;;;;1.12;0.62;;;;;;;17.64;58.44;101257.80;2794113;84;21059;-57
2021/09/30 14:38:43;;;;;;;;;;;;;;;17.80;58.56;101263.91;2804664;84;21091;-57
2021/09/30 14:42:57;;;;;;;2.90;1.07;;;;;;;17.96;58.61;101253.81;2789321;84;20253;-59
2021/09/30 14:47:01;;;;;;;3.60;0.82;;;;;;;17.91;56.81;101256.95;2799207;84;21007;-59
2021/09/30 14:55:39;;;;;;;2.33;1.00;;;;;;;17.59;58.50;101247.98;2802986;84;21103;-58
2021/09/30 14:59:41;;;;;;;3.83;1.67;;;;;;;17.62;58.43;101251.72;2787304;84;21031;-57
2021/09/30 15:03:44;;;;;;;2.20;1.20;;;;;;;17.65;58.39;101246.04;2803245;84;21141;-60
2021/09/30 15:07:46;;;;;;;6.00;1.55;;;;;;;17.68;59.00;101253.80;2800806;84;21281;-60
2021/09/30 15:11:49;;;;;;;3.25;1.15;;;;;;;17.71;58.91;101250.84;2807955;84;21141;-58
2021/09/30 15:15:59;;;;;;;2.85;1.30;;;;;;;17.72;59.31;101258.41;2797526;84;21032;-57
2021/09/30 15:24:05;;;;;;;8.73;1.62;;;;;;;17.68;60.05;101244.39;2795219;84;21080;-58
2021/09/30 15:28:10;;;;;;;4.58;1.92;;;;;;;17.68;59.19;101249.28;2787130;84;20948;-58
2021/09/30 15:32:11;;;;;;;1.37;1.20;;;;;;;17.65;59.59;101250.94;2791498;84;20999;-58
2021/09/30 15:36:23;;;;;;;2.62;0.85;;;;;;;17.52;60.09;101252.62;2782221;84;21003;-58
2021/09/30 15:40:31;;;;;;;3.65;1.22;;;;;;;17.36;60.90;101256.44;2788054;84;20967;-57
2021/09/30 15:44:34;;;;;;;1.35;1.15;;;;;;;17.20;61.44;101258.41;2797722;84;21003;-58
2021/09/30 15:48:36;;;;;;;5.78;1.72;;;;;;;17.06;62.13;101257.00;2793973;84;21240;-57
2021/09/30 15:52:38;;;;;;;2.20;0.93;;;;;;;16.94;63.32;101254.45;2791144;84;20984;-58
2021/09/30 15:56:41;;;;;;;4.67;1.60;;;;;;;16.82;64.13;101252.91;2797220;84;20992;-57
2021/09/30 16:00:43;;;;;;;5.10;0.70;;;;;;;16.73;64.49;101255.13;2798526;84;20992;-57
2021/09/30 16:04:46;;;;;;;3.15;0.68;;;;;;;16.61;65.18;101259.28;2797437;84;21039;-58
2021/09/30 16:08:48;;;;;;;1.60;0.47;;;;;;;16.47;65.33;101257.88;2789786;84;21028;-61
2021/09/30 16:13:04;;;;;;;2.50;1.07;;;;;;;16.41;65.52;101262.48;2789556;84;21032;-57
2021/09/30 16:17:08;;;;;;;1.25;0.85;;;;;;;16.28;66.74;101260.04;2797894;83;20999;-58
2021/09/30 16:21:13;;;;;;;1.55;1.00;;;;;;;16.06;67.98;101267.86;2799271;84;21047;-57
2021/09/30 16:25:16;;;;;;;3.95;0.68;;;;;;;15.94;68.26;101264.45;2793208;84;21043;-58
2021/09/30 16:29:19;;;;;;;4.12;1.42;;;;;;;15.85;68.63;101266.08;2807397;84;21015;-57
2021/09/30 16:33:23;;;;;;;2.12;0.90;;;;;;;15.78;68.85;101269.80;2793212;84;21023;-57
2021/09/30 16:37:36;;;;;;;5.60;1.70;;;;;;;15.70;68.29;101274.49;2799810;84;21070;-57
2021/09/30 16:41:38;;;;;;;3.20;1.10;;;;;;;15.63;68.35;101274.69;2791386;84;21036;-58
2021/09/30 16:45:56;;;;;;;0.93;0.70;;;;;;;15.47;68.35;101277.84;2785258;84;21012;-57
2021/09/30 16:49:57;;;;;;;2.22;1.15;;;;;;;15.33;68.87;101280.86;2796175;84;21138;-57
2021/09/30 16:54:05;;;;;;;2.40;1.85;;;;;;;15.16;69.05;101280.98;2802335;83;21076;-58
2021/09/30 16:58:06;;;;;;;6.45;2.22;;;;;;;14.99;69.67;101281.94;2804670;84;21000;-58
2021/09/30 17:02:16;;;;;;;10.43;2.95;;;;;;;14.80;69.92;101285.33;2789716;84;21003;-58
2021/09/30 17:06:17;;;;;;;13.95;6.97;;;;;;;14.67;70.16;101283.64;2786518;84;21039;-57
2021/09/30 17:10:19;;;;;;;19.20;9.70;;;;;;;14.56;70.40;101287.72;2810770;83;21007;-57
2021/09/30 17:14:31;;;;;;;15.03;7.45;;;;;;;14.45;70.81;101290.42;2852595;83;21063;-61
2021/09/30 17:18:32;;;;;;;5.10;3.62;;;;;;;14.36;70.67;101295.57;2854241;83;21023;-61
2021/09/30 17:22:34;;;;;;;7.78;4.40;;;;;;;14.24;71.13;101304.09;2848093;83;21020;-61
2021/09/30 17:26:36;;;;;;;23.77;10.50;;;;;;;14.16;71.92;101299.02;2857420;83;21032;-61
2021/09/30 17:30:39;;;;;;;18.48;14.98;;;;;;;13.98;73.12;101310.23;2846532;83;20968;-68
2021/09/30 17:34:48;;;;;;;21.42;14.65;;;;;;;13.83;73.53;101306.94;2839542;83;21079;-64
2021/09/30 17:38:50;;;;;;;14.95;10.58;;;;;;;13.82;73.42;101313.26;2852683;83;21047;-62
2021/09/30 17:43:03;;;;;;;14.23;11.43;;;;;;;13.82;73.54;101309.25;2833783;83;20976;-61
2021/09/30 17:47:08;;;;;;;21.73;11.30;;;;;;;13.76;73.85;101322.64;2841354;83;20978;-62
2021/09/30 17:51:30;;;;;;;18.12;7.62;;;;;;;13.73;73.91;101318.02;2848277;83;21015;-63
2021/09/30 17:55:48;;;;;;;9.80;6.05;;;;;;;13.73;73.76;101325.53;2833603;83;21064;-64
2021/09/30 17:59:49;;;;;;;14.98;9.15;;;;;;;13.71;73.83;101324.33;2752390;85;21052;-62
2021/09/30 18:03:51;;;;;;;17.07;6.45;;;;;;;13.66;74.06;101337.70;2747480;85;21020;-67
2021/09/30 18:07:53;;;;;;;8.93;6.58;;;;;;;13.39;74.95;101334.84;2774231;85;21083;-62
2021/09/30 18:11:54;;;;;;;11.15;6.42;;;;;;;13.21;75.61;101331.28;2774689;84;21231;-62
2021/09/30 18:15:59;;;;;;;10.63;6.60;;;;;;;13.23;76.15;101339.16;2773612;84;21011;-64
2021/09/30 18:20:04;;;;;;;16.65;9.55;;;;;;;13.08;76.88;101340.72;2775198;85;21033;-61
2021/09/30 18:24:17;;;;;;;18.53;11.77;;;;;;;12.80;77.83;101344.11;2815745;83;21051;-69
2021/09/30 18:28:15;;;;;;;20.12;12.80;;;;;;;12.63;78.53;101348.51;2812885;83;21021;-64
2021/09/30 18:32:16;;;;;;;15.63;8.98;;;;;;;12.59;78.43;101346.57;2771638;85;21037;-64
2021/09/30 18:36:20;;;;;;;14.07;8.20;;;;;;;12.62;78.24;101357.48;2770552;85;21038;-65
2021/09/30 18:40:22;;;;;;;18.85;12.47;;;;;;;12.62;78.16;101357.02;2722124;86;21076;-61
2021/09/30 18:44:33;;;;;;;20.72;13.18;;;;;;;12.63;78.19;101361.86;2827252;83;21048;-62
2021/09/30 18:48:44;;;;;;;24.77;15.78;;;;;;;12.42;78.96;101367.33;2816678;83;21087;-76
2021/09/30 18:52:46;;;;;;;32.13;19.45;;;;;;;12.18;79.94;101369.94;2772301;84;21084;-67
2021/09/30 18:56:48;;;;;;;28.87;15.35;;;;;;;11.98;80.83;101381.98;2782221;84;21042;-66
2021/09/30 19:00:51;;;;;;;22.73;14.55;;;;;;;11.86;81.22;101377.03;2844325;82;21047;-65
2021/09/30 19:04:52;;;;;;;23.02;11.65;;;;;;;11.78;81.42;101377.56;2836022;83;21052;-61
2021/09/30 19:08:56;;;;;;;13.10;10.32;;;;;;;11.68;81.98;101381.34;2826901;83;21504;-64
2021/09/30 19:12:59;;;;;;;19.87;9.98;;;;;;;11.49;82.61;101379.58;2841519;83;21063;-65
2021/09/30 19:17:01;;;;;;;10.20;7.67;;;;;;;11.32;83.37;101386.93;2839011;83;21015;-61
2021/09/30 19:21:03;;;;;;;14.98;8.38;;;;;;;11.14;83.95;101389.00;2811641;83;21318;-64
2021/09/30 19:25:21;;;;;;;17.12;8.85;;;;;;;10.97;84.90;101384.81;2837236;83;21054;-61
2021/09/30 19:29:24;;;;;;;16.57;10.55;;;;;;;10.85;85.39;101381.98;2831822;83;21174;-63
2021/09/30 19:33:27;;;;;;;17.70;11.60;;;;;;;10.81;85.55;101378.32;2780995;84;21115;-67
2021/09/30 19:37:29;;;;;;;13.28;9.98;;;;;;;10.84;85.65;101380.77;2782370;84;21089;-68
2021/09/30 19:41:50;;;;;;;15.45;10.65;;;;;;;10.92;85.52;101383.77;2785798;85;21048;-65
2021/09/30 19:45:58;;;;;;;20.70;11.50;;;;;;;11.00;85.27;101381.48;2780217;85;21009;-62
2021/09/30 19:49:59;;;;;;;16.70;11.45;;;;;;;11.09;84.84;101379.14;2746363;85;21012;-65
2021/09/30 19:54:04;;;;;;;14.30;9.25;;;;;;;11.12;84.42;101378.94;2775759;84;21585;-64
2021/09/30 19:58:07;;;;;;;10.58;8.35;;;;;;;11.16;84.17;101375.10;2846589;83;20991;-67
2021/09/30 20:02:30;;;;;;;12.88;10.60;;;;;;;11.19;83.84;101380.22;2855205;83;21067;-64
2021/09/30 20:06:32;;;;;;;22.25;15.75;;;;;;;11.17;83.59;101374.14;2829606;83;20972;-62
2021/09/30 20:10:35;;;;;;;20.12;13.48;;;;;;;11.10;83.56;101372.40;2823978;83;21011;-66
2021/09/30 20:14:36;;;;;;;21.80;13.80;;;;;;;10.93;83.98;101376.66;2840615;83;21004;-62
2021/09/30 20:18:39;;;;;;;18.12;12.28;;;;;;;10.78;84.51;101370.52;2840638;83;21082;-62
2021/09/30 20:22:42;;;;;;;16.27;11.63;;;;;;;10.64;85.30;101367.42;2834014;83;21079;-65
2021/09/30 20:26:44;;;;;;;23.45;13.05;;;;;;;10.51;85.74;101364.70;2847454;83;21071;-62
2021/09/30 20:30:46;;;;;;;23.27;13.55;;;;;;;10.39;86.34;101367.66;2849708;83;21078;-63
2021/09/30 20:34:47;;;;;;;16.95;11.68;;;;;;;10.36;86.80;101371.34;2839791;83;21012;-63
2021/09/30 20:38:49;;;;;;;18.80;12.88;;;;;;;10.34;86.90;101369.77;2847688;82;21341;-66
2021/09/30 20:42:51;;;;;;;20.12;15.38;;;;;;;10.32;86.87;101368.52;2841365;83;21024;-63
2021/09/30 20:47:00;;;;;;;25.68;14.80;;;;;;;10.43;86.85;101370.06;2850356;83;20976;-62
2021/09/30 20:51:02;;;;;;;29.30;15.60;;;;;;;10.59;86.01;101369.05;2834006;83;21150;-62
2021/09/30 20:55:05;;;;;;;23.25;15.72;;;;;;;10.70;85.36;101366.55;2845393;83;20973;-63
2021/09/30 20:59:07;;;;;;;22.82;15.48;;;;;;;10.71;84.79;101364.27;2844003;83;21101;-67
2021/09/30 21:03:20;;;;;;;18.37;12.95;;;;;;;10.71;84.08;101360.28;2836538;83;21055;-64
2021/09/30 21:07:22;;;;;;;24.63;15.38;;;;;;;10.54;84.27;101357.86;2837138;83;21044;-67
2021/09/30 21:11:39;;;;;;;23.95;15.95;;;;;;;10.38;84.82;101359.30;2841042;83;21016;-62
2021/09/30 21:15:41;;;;;;;24.12;13.45;;;;;;;10.30;85.51;101371.75;2844788;83;21039;-64
2021/09/30 21:19:44;;;;;;;23.47;15.20;;;;;;;10.13;85.94;101364.85;2850725;83;20960;-62
2021/09/30 21:23:47;;;;;;;18.60;14.40;;;;;;;10.06;86.45;101369.69;2842241;83;21034;-61
2021/09/30 21:27:49;;;;;;;16.65;13.03;;;;;;;10.19;86.61;101368.44;2855685;83;21032;-61
2021/09/30 21:31:52;;;;;;;19.23;13.35;;;;;;;10.30;85.63;101374.41;2842148;83;21051;-65
2021/09/30 21:35:53;;;;;;;14.95;11.57;;;;;;;10.35;84.83;101371.47;2848668;83;21004;-63
2021/09/30 21:39:55;;;;;;;15.50;9.88;;;;;;;10.40;84.64;101377.34;2846191;83;21047;-64
2021/09/30 21:43:57;;;;;;;18.23;13.48;;;;;;;10.40;83.56;101378.20;2856129;83;21019;-62
2021/09/30 21:47:59;;;;;;;15.90;11.73;;;;;;;10.34;82.70;101380.40;2835020;83;20975;-62
2021/09/30 21:52:02;;;;;;;16.05;11.43;;;;;;;10.23;82.72;101383.25;2851412;81;21016;-64
2021/09/30 21:56:04;;;;;;;20.27;12.47;;;;;;;10.10;82.81;101380.51;2830111;83;20976;-66